Station Historical Data
Daily Summary for March 20, 2017 Units:  Both    English   Metric
« Previous Day
Next Day »
Daily Weekly Monthly Yearly Custom
  High: Low: Average:
Temperature: 40.6 °F /  4.8 °C 24.8 °F /  -4 °C 34.3 °F /  1.3 °C
Dew Point: 31.6 °F /  -0.2 °C 22.8 °F /  -5.1 °C 28.9 °F /  -1.7 °C
Humidity: 93% 68% 81%
Wind Speed: 9.0mph /  14.5km/h - 1.6mph /  2.6km/h
Wind Gust: 12.0mph /  19.3km/h - -
Wind- - SW
Pressure: 30.30 in /  1026 hPa 30.02 in /  1016.5 hPa -
Precipitation: 0.00 in /  0 mm    
Historical Graphs
 
 
Tabular Data for March 20, 2017
Time Temperature Dew Point Pressure Wind Wind Speed Wind Gust Humidity Rainfall Rate (Hourly)
00:04 30.0 °F /  -1.1 °C 27.4 °F /  -2.6 °C 30.30in /  1026hPa SW 2.0mph /  3.2km/h 3.0mph /  4.8km/h 90% 0.00in /  0mm
00:09 30.0 °F /  -1.1 °C 27.4 °F /  -2.6 °C 30.30in /  1026hPa SW 2.0mph /  3.2km/h 3.0mph /  4.8km/h 90% 0.00in /  0mm
00:14 30.2 °F /  -1 °C 27.6 °F /  -2.4 °C 30.30in /  1026hPa SW 1.0mph /  1.6km/h 3.0mph /  4.8km/h 90% 0.00in /  0mm
00:19 30.1 °F /  -1.1 °C 27.5 °F /  -2.5 °C 30.30in /  1026hPa SW 1.0mph /  1.6km/h 4.0mph /  6.4km/h 90% 0.00in /  0mm
00:24 30.2 °F /  -1 °C 27.6 °F /  -2.4 °C 30.30in /  1026hPa SW 1.0mph /  1.6km/h 4.0mph /  6.4km/h 90% 0.00in /  0mm
00:29 30.2 °F /  -1 °C 27.6 °F /  -2.4 °C 30.29in /  1025.6hPa SSW 3.0mph /  4.8km/h 3.0mph /  4.8km/h 90% 0.00in /  0mm
00:34 30.1 °F /  -1.1 °C 27.5 °F /  -2.5 °C 30.29in /  1025.6hPa SSW 1.0mph /  1.6km/h 3.0mph /  4.8km/h 90% 0.00in /  0mm
00:39 29.8 °F /  -1.2 °C 27.2 °F /  -2.7 °C 30.29in /  1025.6hPa Calm   3.0mph /  4.8km/h 90% 0.00in /  0mm
00:44 29.7 °F /  -1.3 °C 27.4 °F /  -2.6 °C 30.29in /  1025.6hPa SSW 1.0mph /  1.6km/h 3.0mph /  4.8km/h 91% 0.00in /  0mm
00:49 29.6 °F /  -1.3 °C 27.3 °F /  -2.6 °C 30.28in /  1025.3hPa SW 1.0mph /  1.6km/h 3.0mph /  4.8km/h 91% 0.00in /  0mm
00:54 29.4 °F /  -1.4 °C 27.1 °F /  -2.7 °C 30.28in /  1025.3hPa SW 1.0mph /  1.6km/h 3.0mph /  4.8km/h 91% 0.00in /  0mm
00:59 29.1 °F /  -1.6 °C 26.8 °F /  -2.9 °C 30.28in /  1025.3hPa SSW 1.0mph /  1.6km/h 2.0mph /  3.2km/h 91% 0.00in /  0mm
01:04 28.6 °F /  -1.9 °C 26.3 °F /  -3.2 °C 30.27in /  1024.9hPa Calm   2.0mph /  3.2km/h 91% 0.00in /  0mm
01:09 28.3 °F /  -2.1 °C 26.0 °F /  -3.3 °C 30.27in /  1024.9hPa Calm     91% 0.00in /  0mm
01:14 28.1 °F /  -2.2 °C 25.8 °F /  -3.4 °C 30.27in /  1024.9hPa Calm     91% 0.00in /  0mm
01:19 28.0 °F /  -2.2 °C 25.7 °F /  -3.5 °C 30.27in /  1024.9hPa Calm     91% 0.00in /  0mm
01:24 28.0 °F /  -2.2 °C 25.7 °F /  -3.5 °C 30.27in /  1024.9hPa Calm     91% 0.00in /  0mm
01:29 27.6 °F /  -2.4 °C 25.3 °F /  -3.7 °C 30.27in /  1024.9hPa Calm     91% 0.00in /  0mm
01:34 27.6 °F /  -2.4 °C 25.6 °F /  -3.6 °C 30.27in /  1024.9hPa Calm     92% 0.00in /  0mm
01:39 27.6 °F /  -2.4 °C 25.6 °F /  -3.6 °C 30.27in /  1024.9hPa Calm     92% 0.00in /  0mm
01:44 27.9 °F /  -2.3 °C 25.9 °F /  -3.4 °C 30.27in /  1024.9hPa SW 1.0mph /  1.6km/h 3.0mph /  4.8km/h 92% 0.00in /  0mm
01:49 28.8 °F /  -1.8 °C 27.0 °F /  -2.8 °C 30.27in /  1024.9hPa SW 1.0mph /  1.6km/h 4.0mph /  6.4km/h 93% 0.00in /  0mm
01:54 29.6 °F /  -1.3 °C 27.8 °F /  -2.3 °C 30.27in /  1024.9hPa SW 2.0mph /  3.2km/h 4.0mph /  6.4km/h 93% 0.00in /  0mm
01:59 29.8 °F /  -1.2 °C 28.0 °F /  -2.2 °C 30.27in /  1024.9hPa SW 2.0mph /  3.2km/h 4.0mph /  6.4km/h 93% 0.00in /  0mm
02:04 30.1 °F /  -1.1 °C 28.1 °F /  -2.2 °C 30.27in /  1024.9hPa SW 2.0mph /  3.2km/h 4.0mph /  6.4km/h 92% 0.00in /  0mm
02:09 30.1 °F /  -1.1 °C 28.1 °F /  -2.2 °C 30.27in /  1024.9hPa SW 1.0mph /  1.6km/h 3.0mph /  4.8km/h 92% 0.00in /  0mm
02:14 29.7 °F /  -1.3 °C 27.7 °F /  -2.4 °C 30.27in /  1024.9hPa Calm   2.0mph /  3.2km/h 92% 0.00in /  0mm
02:19 29.5 °F /  -1.4 °C 27.5 °F /  -2.5 °C 30.27in /  1024.9hPa SW 1.0mph /  1.6km/h 2.0mph /  3.2km/h 92% 0.00in /  0mm
02:24 29.4 °F /  -1.4 °C 27.4 °F /  -2.6 °C 30.27in /  1024.9hPa Calm   2.0mph /  3.2km/h 92% 0.00in /  0mm
02:29 29.3 °F /  -1.5 °C 27.3 °F /  -2.6 °C 30.27in /  1024.9hPa Calm   2.0mph /  3.2km/h 92% 0.00in /  0mm
02:34 29.1 °F /  -1.6 °C 27.3 °F /  -2.6 °C 30.27in /  1024.9hPa Calm   2.0mph /  3.2km/h 93% 0.00in /  0mm
02:39 29.0 °F /  -1.7 °C 27.2 °F /  -2.7 °C 30.27in /  1024.9hPa Calm     93% 0.00in /  0mm
02:44 28.8 °F /  -1.8 °C 26.8 °F /  -2.9 °C 30.27in /  1024.9hPa Calm     92% 0.00in /  0mm
02:49 28.6 °F /  -1.9 °C 26.6 °F /  -3 °C 30.27in /  1024.9hPa Calm     92% 0.00in /  0mm
02:54 28.2 °F /  -2.1 °C 26.2 °F /  -3.2 °C 30.26in /  1024.6hPa Calm     92% 0.00in /  0mm
02:59 28.1 °F /  -2.2 °C 26.1 °F /  -3.3 °C 30.26in /  1024.6hPa Calm     92% 0.00in /  0mm
03:04 27.7 °F /  -2.4 °C 25.7 °F /  -3.5 °C 30.26in /  1024.6hPa Calm     92% 0.00in /  0mm
03:14 27.2 °F /  -2.7 °C 25.2 °F /  -3.8 °C 30.27in /  1024.9hPa Calm     92% 0.00in /  0mm
03:19 27.0 °F /  -2.8 °C 25.0 °F /  -3.9 °C 30.26in /  1024.6hPa Calm     92% 0.00in /  0mm
03:24 26.9 °F /  -2.8 °C 24.9 °F /  -3.9 °C 30.26in /  1024.6hPa Calm     92% 0.00in /  0mm
03:29 26.6 °F /  -3 °C 24.6 °F /  -4.1 °C 30.26in /  1024.6hPa Calm     92% 0.00in /  0mm
03:34 26.4 °F /  -3.1 °C 24.4 °F /  -4.2 °C 30.26in /  1024.6hPa Calm     92% 0.00in /  0mm
03:39 26.1 °F /  -3.3 °C 24.1 °F /  -4.4 °C 30.26in /  1024.6hPa Calm     92% 0.00in /  0mm
03:44 25.7 °F /  -3.5 °C 23.7 °F /  -4.6 °C 30.26in /  1024.6hPa Calm     92% 0.00in /  0mm
03:49 25.8 °F /  -3.4 °C 24.1 °F /  -4.4 °C 30.26in /  1024.6hPa Calm     93% 0.00in /  0mm
03:54 25.6 °F /  -3.6 °C 23.6 °F /  -4.7 °C 30.27in /  1024.9hPa Calm     92% 0.00in /  0mm
03:59 25.7 °F /  -3.5 °C 24.0 °F /  -4.4 °C 30.27in /  1024.9hPa Calm     93% 0.00in /  0mm
04:04 25.8 °F /  -3.4 °C 23.8 °F /  -4.6 °C 30.27in /  1024.9hPa Calm     92% 0.00in /  0mm
04:09 25.8 °F /  -3.4 °C 24.1 °F /  -4.4 °C 30.27in /  1024.9hPa Calm     93% 0.00in /  0mm
04:14 26.1 °F /  -3.3 °C 24.4 °F /  -4.2 °C 30.27in /  1024.9hPa Calm     93% 0.00in /  0mm
04:19 26.3 °F /  -3.2 °C 24.6 °F /  -4.1 °C 30.27in /  1024.9hPa Calm     93% 0.00in /  0mm
04:24 26.3 °F /  -3.2 °C 24.6 °F /  -4.1 °C 30.27in /  1024.9hPa Calm     93% 0.00in /  0mm
04:29 26.3 °F /  -3.2 °C 24.6 °F /  -4.1 °C 30.27in /  1024.9hPa Calm     93% 0.00in /  0mm
04:34 26.3 °F /  -3.2 °C 24.6 °F /  -4.1 °C 30.27in /  1024.9hPa Calm     93% 0.00in /  0mm
04:39 26.1 °F /  -3.3 °C 24.1 °F /  -4.4 °C 30.27in /  1024.9hPa Calm     92% 0.00in /  0mm
04:44 26.0 °F /  -3.3 °C 24.3 °F /  -4.3 °C 30.26in /  1024.6hPa Calm     93% 0.00in /  0mm
04:49 25.8 °F /  -3.4 °C 23.8 °F /  -4.6 °C 30.27in /  1024.9hPa Calm     92% 0.00in /  0mm
04:54 25.9 °F /  -3.4 °C 24.2 °F /  -4.3 °C 30.26in /  1024.6hPa Calm     93% 0.00in /  0mm
04:59 25.8 °F /  -3.4 °C 24.1 °F /  -4.4 °C 30.26in /  1024.6hPa Calm     93% 0.00in /  0mm
05:04 25.9 °F /  -3.4 °C 24.2 °F /  -4.3 °C 30.26in /  1024.6hPa Calm     93% 0.00in /  0mm
05:09 25.9 °F /  -3.4 °C 23.9 °F /  -4.5 °C 30.26in /  1024.6hPa Calm     92% 0.00in /  0mm
05:14 25.7 °F /  -3.5 °C 23.7 °F /  -4.6 °C 30.26in /  1024.6hPa Calm     92% 0.00in /  0mm
05:19 25.7 °F /  -3.5 °C 24.0 °F /  -4.4 °C 30.26in /  1024.6hPa Calm     93% 0.00in /  0mm
05:24 25.5 °F /  -3.6 °C 23.5 °F /  -4.7 °C 30.26in /  1024.6hPa Calm     92% 0.00in /  0mm
05:29 25.7 °F /  -3.5 °C 23.7 °F /  -4.6 °C 30.25in /  1024.3hPa Calm     92% 0.00in /  0mm
05:34 26.0 °F /  -3.3 °C 24.3 °F /  -4.3 °C 30.25in /  1024.3hPa South 1.0mph /  1.6km/h 3.0mph /  4.8km/h 93% 0.00in /  0mm
05:39 26.0 °F /  -3.3 °C 24.0 °F /  -4.4 °C 30.25in /  1024.3hPa South 1.0mph /  1.6km/h 3.0mph /  4.8km/h 92% 0.00in /  0mm
05:44 25.5 °F /  -3.6 °C 23.5 °F /  -4.7 °C 30.25in /  1024.3hPa Calm     92% 0.00in /  0mm
05:49 25.2 °F /  -3.8 °C 23.2 °F /  -4.9 °C 30.25in /  1024.3hPa Calm     92% 0.00in /  0mm
05:54 25.0 °F /  -3.9 °C 23.0 °F /  -5 °C 30.25in /  1024.3hPa Calm     92% 0.00in /  0mm
05:59 24.8 °F /  -4 °C 22.8 °F /  -5.1 °C 30.25in /  1024.3hPa Calm     92% 0.00in /  0mm
06:04 25.0 °F /  -3.9 °C 23.0 °F /  -5 °C 30.25in /  1024.3hPa Calm     92% 0.00in /  0mm
06:09 25.0 °F /  -3.9 °C 23.0 °F /  -5 °C 30.25in /  1024.3hPa Calm     92% 0.00in /  0mm
06:14 25.2 °F /  -3.8 °C 23.5 °F /  -4.7 °C 30.24in /  1023.9hPa Calm     93% 0.00in /  0mm
06:19 25.3 °F /  -3.7 °C 23.3 °F /  -4.8 °C 30.24in /  1023.9hPa Calm     92% 0.00in /  0mm
06:24 25.6 °F /  -3.6 °C 23.6 °F /  -4.7 °C 30.24in /  1023.9hPa Calm     92% 0.00in /  0mm
06:29 26.0 °F /  -3.3 °C 24.0 °F /  -4.4 °C 30.24in /  1023.9hPa South 1.0mph /  1.6km/h 2.0mph /  3.2km/h 92% 0.00in /  0mm
06:34 26.7 °F /  -2.9 °C 24.9 °F /  -3.9 °C 30.23in /  1023.6hPa SSE 2.0mph /  3.2km/h 3.0mph /  4.8km/h 93% 0.00in /  0mm
06:39 27.2 °F /  -2.7 °C 25.4 °F /  -3.7 °C 30.23in /  1023.6hPa SSE 2.0mph /  3.2km/h 3.0mph /  4.8km/h 93% 0.00in /  0mm
06:44 26.8 °F /  -2.9 °C 24.8 °F /  -4 °C 30.24in /  1023.9hPa Calm   3.0mph /  4.8km/h 92% 0.00in /  0mm
06:49 26.3 °F /  -3.2 °C 24.3 °F /  -4.3 °C 30.24in /  1023.9hPa Calm     92% 0.00in /  0mm
06:54 25.9 °F /  -3.4 °C 23.6 °F /  -4.7 °C 30.24in /  1023.9hPa Calm     91% 0.00in /  0mm
06:59 26.1 °F /  -3.3 °C 24.1 °F /  -4.4 °C 30.24in /  1023.9hPa Calm     92% 0.00in /  0mm
07:04 26.5 °F /  -3.1 °C 24.5 °F /  -4.2 °C 30.23in /  1023.6hPa Calm   3.0mph /  4.8km/h 92% 0.00in /  0mm
07:09 27.0 °F /  -2.8 °C 25.0 °F /  -3.9 °C 30.23in /  1023.6hPa SSE 1.0mph /  1.6km/h 3.0mph /  4.8km/h 92% 0.00in /  0mm
07:14 27.4 °F /  -2.6 °C 25.4 °F /  -3.7 °C 30.23in /  1023.6hPa South 1.0mph /  1.6km/h 3.0mph /  4.8km/h 92% 0.00in /  0mm
07:19 27.8 °F /  -2.3 °C 25.8 °F /  -3.4 °C 30.22in /  1023.2hPa South 1.0mph /  1.6km/h 3.0mph /  4.8km/h 92% 0.00in /  0mm
07:24 27.8 °F /  -2.3 °C 25.5 °F /  -3.6 °C 30.22in /  1023.2hPa South 1.0mph /  1.6km/h 2.0mph /  3.2km/h 91% 0.00in /  0mm
07:29 27.7 °F /  -2.4 °C 25.4 °F /  -3.7 °C 30.22in /  1023.2hPa SSE 1.0mph /  1.6km/h 2.0mph /  3.2km/h 91% 0.00in /  0mm
07:34 27.9 °F /  -2.3 °C 25.6 °F /  -3.6 °C 30.22in /  1023.2hPa Calm   2.0mph /  3.2km/h 91% 0.00in /  0mm
07:39 28.1 °F /  -2.2 °C 25.8 °F /  -3.4 °C 30.22in /  1023.2hPa Calm     91% 0.00in /  0mm
07:44 28.5 °F /  -1.9 °C 26.2 °F /  -3.2 °C 30.22in /  1023.2hPa Calm     91% 0.00in /  0mm
07:49 29.0 °F /  -1.7 °C 26.7 °F /  -2.9 °C 30.21in /  1022.9hPa Calm     91% 0.00in /  0mm
07:59 29.4 °F /  -1.4 °C 27.1 °F /  -2.7 °C 30.21in /  1022.9hPa Calm   3.0mph /  4.8km/h 91% 0.00in /  0mm
08:04 29.6 °F /  -1.3 °C 27.0 °F /  -2.8 °C 30.20in /  1022.6hPa SE 2.0mph /  3.2km/h 3.0mph /  4.8km/h 90% 0.00in /  0mm
08:09 29.7 °F /  -1.3 °C 27.1 °F /  -2.7 °C 30.20in /  1022.6hPa SSE 1.0mph /  1.6km/h 3.0mph /  4.8km/h 90% 0.00in /  0mm
08:14 30.0 °F /  -1.1 °C 27.4 °F /  -2.6 °C 30.20in /  1022.6hPa SSE 2.0mph /  3.2km/h 4.0mph /  6.4km/h 90% 0.00in /  0mm
08:19 30.4 °F /  -0.9 °C 27.8 °F /  -2.3 °C 30.20in /  1022.6hPa SSE 2.0mph /  3.2km/h 4.0mph /  6.4km/h 90% 0.00in /  0mm
08:24 30.6 °F /  -0.8 °C 27.7 °F /  -2.4 °C 30.19in /  1022.2hPa SSE 3.0mph /  4.8km/h 7.0mph /  11.3km/h 89% 0.00in /  0mm
08:29 30.9 °F /  -0.6 °C 28.0 °F /  -2.2 °C 30.19in /  1022.2hPa SSE 3.0mph /  4.8km/h 7.0mph /  11.3km/h 89% 0.00in /  0mm
08:34 31.1 °F /  -0.5 °C 28.2 °F /  -2.1 °C 30.19in /  1022.2hPa SSE 2.0mph /  3.2km/h 5.0mph /  8km/h 89% 0.00in /  0mm
08:39 31.4 °F /  -0.3 °C 28.3 °F /  -2.1 °C 30.19in /  1022.2hPa SSW 3.0mph /  4.8km/h 4.0mph /  6.4km/h 88% 0.00in /  0mm
08:44 31.6 °F /  -0.2 °C 28.5 °F /  -1.9 °C 30.19in /  1022.2hPa SE 2.0mph /  3.2km/h 3.0mph /  4.8km/h 88% 0.00in /  0mm
08:49 31.8 °F /  -0.1 °C 28.4 °F /  -2 °C 30.19in /  1022.2hPa SSE 2.0mph /  3.2km/h 3.0mph /  4.8km/h 87% 0.00in /  0mm
08:54 32.1 °F /  0.1 °C 28.7 °F /  -1.8 °C 30.18in /  1021.9hPa SSE 3.0mph /  4.8km/h 3.0mph /  4.8km/h 87% 0.00in /  0mm
08:59 32.2 °F /  0.1 °C 28.5 °F /  -1.9 °C 30.19in /  1022.2hPa SSE 3.0mph /  4.8km/h 4.0mph /  6.4km/h 86% 0.00in /  0mm
09:04 32.6 °F /  0.3 °C 28.9 °F /  -1.7 °C 30.19in /  1022.2hPa Calm   3.0mph /  4.8km/h 86% 0.00in /  0mm
09:09 32.8 °F /  0.4 °C 29.1 °F /  -1.6 °C 30.19in /  1022.2hPa South 1.0mph /  1.6km/h 3.0mph /  4.8km/h 86% 0.00in /  0mm
09:14 32.8 °F /  0.4 °C 28.8 °F /  -1.8 °C 30.20in /  1022.6hPa SW 2.0mph /  3.2km/h 3.0mph /  4.8km/h 85% 0.00in /  0mm
09:19 32.7 °F /  0.4 °C 28.7 °F /  -1.8 °C 30.20in /  1022.6hPa SW 1.0mph /  1.6km/h 3.0mph /  4.8km/h 85% 0.00in /  0mm
09:24 32.7 °F /  0.4 °C 29.0 °F /  -1.7 °C 30.20in /  1022.6hPa Calm   3.0mph /  4.8km/h 86% 0.00in /  0mm
09:29 33.0 °F /  0.6 °C 29.3 °F /  -1.5 °C 30.20in /  1022.6hPa SW 1.0mph /  1.6km/h 3.0mph /  4.8km/h 86% 0.00in /  0mm
09:34 33.3 °F /  0.7 °C 29.3 °F /  -1.5 °C 30.19in /  1022.2hPa SSW 1.0mph /  1.6km/h 3.0mph /  4.8km/h 85% 0.00in /  0mm
09:39 33.5 °F /  0.8 °C 29.5 °F /  -1.4 °C 30.20in /  1022.6hPa SW 2.0mph /  3.2km/h 3.0mph /  4.8km/h 85% 0.00in /  0mm
09:44 33.6 °F /  0.9 °C 29.6 °F /  -1.3 °C 30.20in /  1022.6hPa Calm   3.0mph /  4.8km/h 85% 0.00in /  0mm
09:49 33.8 °F /  1 °C 29.8 °F /  -1.2 °C 30.21in /  1022.9hPa Calm   2.0mph /  3.2km/h 85% 0.00in /  0mm
09:54 33.9 °F /  1.1 °C 29.9 °F /  -1.2 °C 30.21in /  1022.9hPa Calm   2.0mph /  3.2km/h 85% 0.00in /  0mm
09:59 34.1 °F /  1.2 °C 29.8 °F /  -1.2 °C 30.21in /  1022.9hPa Calm   2.0mph /  3.2km/h 84% 0.00in /  0mm
10:04 34.3 °F /  1.3 °C 30.0 °F /  -1.1 °C 30.21in /  1022.9hPa Calm   2.0mph /  3.2km/h 84% 0.00in /  0mm
10:09 34.4 °F /  1.3 °C 30.1 °F /  -1.1 °C 30.21in /  1022.9hPa South 2.0mph /  3.2km/h 3.0mph /  4.8km/h 84% 0.00in /  0mm
10:14 34.6 °F /  1.4 °C 30.0 °F /  -1.1 °C 30.21in /  1022.9hPa SW 4.0mph /  6.4km/h 4.0mph /  6.4km/h 83% 0.00in /  0mm
10:19 34.8 °F /  1.6 °C 30.2 °F /  -1 °C 30.21in /  1022.9hPa SW 2.0mph /  3.2km/h 4.0mph /  6.4km/h 83% 0.00in /  0mm
10:24 34.8 °F /  1.6 °C 30.2 °F /  -1 °C 30.21in /  1022.9hPa SW 2.0mph /  3.2km/h 5.0mph /  8km/h 83% 0.00in /  0mm
10:29 35.0 °F /  1.7 °C 30.1 °F /  -1.1 °C 30.21in /  1022.9hPa SSW 2.0mph /  3.2km/h 5.0mph /  8km/h 82% 0.00in /  0mm
10:34 35.0 °F /  1.7 °C 30.1 °F /  -1.1 °C 30.21in /  1022.9hPa SSW 2.0mph /  3.2km/h 5.0mph /  8km/h 82% 0.00in /  0mm
10:39 35.1 °F /  1.7 °C 30.2 °F /  -1 °C 30.21in /  1022.9hPa SSW 2.0mph /  3.2km/h 5.0mph /  8km/h 82% 0.00in /  0mm
10:44 35.2 °F /  1.8 °C 30.3 °F /  -0.9 °C 30.21in /  1022.9hPa SSW 2.0mph /  3.2km/h 4.0mph /  6.4km/h 82% 0.00in /  0mm
10:49 35.4 °F /  1.9 °C 30.5 °F /  -0.8 °C 30.21in /  1022.9hPa SSW 2.0mph /  3.2km/h 4.0mph /  6.4km/h 82% 0.00in /  0mm
10:54 35.5 °F /  1.9 °C 30.2 °F /  -1 °C 30.21in /  1022.9hPa South 1.0mph /  1.6km/h 4.0mph /  6.4km/h 81% 0.00in /  0mm
10:59 35.7 °F /  2.1 °C 30.4 °F /  -0.9 °C 30.21in /  1022.9hPa SW 2.0mph /  3.2km/h 5.0mph /  8km/h 81% 0.00in /  0mm
11:04 35.8 °F /  2.1 °C 30.2 °F /  -1 °C 30.21in /  1022.9hPa SW 4.0mph /  6.4km/h 6.0mph /  9.7km/h 80% 0.00in /  0mm
11:09 35.9 °F /  2.2 °C 30.3 °F /  -0.9 °C 30.21in /  1022.9hPa Calm   7.0mph /  11.3km/h 80% 0.00in /  0mm
11:14 35.9 °F /  2.2 °C 30.3 °F /  -0.9 °C 30.21in /  1022.9hPa South 4.0mph /  6.4km/h 7.0mph /  11.3km/h 80% 0.00in /  0mm
11:19 36.1 °F /  2.3 °C 30.5 °F /  -0.8 °C 30.21in /  1022.9hPa West 5.0mph /  8km/h 6.0mph /  9.7km/h 80% 0.00in /  0mm
11:24 36.2 °F /  2.3 °C 30.3 °F /  -0.9 °C 30.21in /  1022.9hPa SW 3.0mph /  4.8km/h 8.0mph /  12.9km/h 79% 0.00in /  0mm
11:29 36.4 °F /  2.4 °C 30.5 °F /  -0.8 °C 30.21in /  1022.9hPa SW 3.0mph /  4.8km/h 8.0mph /  12.9km/h 79% 0.00in /  0mm
11:39 36.5 °F /  2.5 °C 30.3 °F /  -0.9 °C 30.20in /  1022.6hPa South 2.0mph /  3.2km/h 4.0mph /  6.4km/h 78% 0.00in /  0mm
11:44 36.6 °F /  2.6 °C 30.4 °F /  -0.9 °C 30.20in /  1022.6hPa WSW 2.0mph /  3.2km/h 5.0mph /  8km/h 78% 0.00in /  0mm
11:49 36.8 °F /  2.7 °C 30.6 °F /  -0.8 °C 30.20in /  1022.6hPa SSW 1.0mph /  1.6km/h 4.0mph /  6.4km/h 78% 0.00in /  0mm
11:54 36.8 °F /  2.7 °C 30.3 °F /  -0.9 °C 30.19in /  1022.2hPa SSW 4.0mph /  6.4km/h 10.0mph /  16.1km/h 77% 0.00in /  0mm
11:59 36.7 °F /  2.6 °C 30.2 °F /  -1 °C 30.19in /  1022.2hPa SSW 3.0mph /  4.8km/h 10.0mph /  16.1km/h 77% 0.00in /  0mm
12:04 36.9 °F /  2.7 °C 30.4 °F /  -0.9 °C 30.19in /  1022.2hPa SSW 4.0mph /  6.4km/h 8.0mph /  12.9km/h 77% 0.00in /  0mm
12:09 37.3 °F /  2.9 °C 30.7 °F /  -0.7 °C 30.19in /  1022.2hPa SSW 3.0mph /  4.8km/h 8.0mph /  12.9km/h 77% 0.00in /  0mm
12:14 37.7 °F /  3.2 °C 30.8 °F /  -0.7 °C 30.19in /  1022.2hPa SSW 2.0mph /  3.2km/h 4.0mph /  6.4km/h 76% 0.00in /  0mm
12:19 37.9 °F /  3.3 °C 30.7 °F /  -0.7 °C 30.18in /  1021.9hPa Calm   6.0mph /  9.7km/h 75% 0.00in /  0mm
12:24 38.1 °F /  3.4 °C 30.9 °F /  -0.6 °C 30.18in /  1021.9hPa South 2.0mph /  3.2km/h 3.0mph /  4.8km/h 75% 0.00in /  0mm
12:29 38.2 °F /  3.4 °C 31.0 °F /  -0.6 °C 30.18in /  1021.9hPa South 2.0mph /  3.2km/h 5.0mph /  8km/h 75% 0.00in /  0mm
12:34 38.3 °F /  3.5 °C 30.7 °F /  -0.7 °C 30.17in /  1021.6hPa South 3.0mph /  4.8km/h 6.0mph /  9.7km/h 74% 0.00in /  0mm
12:39 38.4 °F /  3.6 °C 30.5 °F /  -0.8 °C 30.17in /  1021.6hPa SSW 3.0mph /  4.8km/h 7.0mph /  11.3km/h 73% 0.00in /  0mm
12:44 38.5 °F /  3.6 °C 30.6 °F /  -0.8 °C 30.17in /  1021.6hPa SSW 3.0mph /  4.8km/h 7.0mph /  11.3km/h 73% 0.00in /  0mm
12:49 38.6 °F /  3.7 °C 30.4 °F /  -0.9 °C 30.18in /  1021.9hPa SW 3.0mph /  4.8km/h 7.0mph /  11.3km/h 72% 0.00in /  0mm
12:54 39.1 °F /  3.9 °C 30.8 °F /  -0.7 °C 30.18in /  1021.9hPa SSW 3.0mph /  4.8km/h 7.0mph /  11.3km/h 72% 0.00in /  0mm
12:59 39.3 °F /  4.1 °C 30.7 °F /  -0.7 °C 30.18in /  1021.9hPa WSW 3.0mph /  4.8km/h 8.0mph /  12.9km/h 71% 0.00in /  0mm
13:04 39.0 °F /  3.9 °C 30.4 °F /  -0.9 °C 30.17in /  1021.6hPa South 2.0mph /  3.2km/h 11.0mph /  17.7km/h 71% 0.00in /  0mm
13:09 39.1 °F /  3.9 °C 30.5 °F /  -0.8 °C 30.18in /  1021.9hPa SSW 3.0mph /  4.8km/h 8.0mph /  12.9km/h 71% 0.00in /  0mm
13:14 39.4 °F /  4.1 °C 30.4 °F /  -0.9 °C 30.18in /  1021.9hPa SW 7.0mph /  11.3km/h 9.0mph /  14.5km/h 70% 0.00in /  0mm
13:19 39.6 °F /  4.2 °C 30.6 °F /  -0.8 °C 30.17in /  1021.6hPa South 3.0mph /  4.8km/h 9.0mph /  14.5km/h 70% 0.00in /  0mm
13:24 40.0 °F /  4.4 °C 31.0 °F /  -0.6 °C 30.17in /  1021.6hPa SSW 3.0mph /  4.8km/h 11.0mph /  17.7km/h 70% 0.00in /  0mm
13:29 40.3 °F /  4.6 °C 30.9 °F /  -0.6 °C 30.17in /  1021.6hPa SW 4.0mph /  6.4km/h 11.0mph /  17.7km/h 69% 0.00in /  0mm
13:34 40.4 °F /  4.7 °C 31.0 °F /  -0.6 °C 30.17in /  1021.6hPa WSW 4.0mph /  6.4km/h 9.0mph /  14.5km/h 69% 0.00in /  0mm
13:39 40.3 °F /  4.6 °C 30.6 °F /  -0.8 °C 30.16in /  1021.2hPa WSW 5.0mph /  8km/h 9.0mph /  14.5km/h 68% 0.00in /  0mm
13:44 40.2 °F /  4.6 °C 30.5 °F /  -0.8 °C 30.16in /  1021.2hPa WSW 5.0mph /  8km/h 12.0mph /  19.3km/h 68% 0.00in /  0mm
13:49 40.3 °F /  4.6 °C 30.6 °F /  -0.8 °C 30.16in /  1021.2hPa WSW 5.0mph /  8km/h 12.0mph /  19.3km/h 68% 0.00in /  0mm
13:54 40.2 °F /  4.6 °C 30.8 °F /  -0.7 °C 30.16in /  1021.2hPa SW 6.0mph /  9.7km/h 11.0mph /  17.7km/h 69% 0.00in /  0mm
13:59 40.5 °F /  4.7 °C 31.1 °F /  -0.5 °C 30.16in /  1021.2hPa WSW 6.0mph /  9.7km/h 9.0mph /  14.5km/h 69% 0.00in /  0mm
14:04 40.5 °F /  4.7 °C 30.8 °F /  -0.7 °C 30.15in /  1020.9hPa South 9.0mph /  14.5km/h 9.0mph /  14.5km/h 68% 0.00in /  0mm
14:09 40.4 °F /  4.7 °C 30.7 °F /  -0.7 °C 30.15in /  1020.9hPa SW 5.0mph /  8km/h 10.0mph /  16.1km/h 68% 0.00in /  0mm
14:14 40.5 °F /  4.7 °C 31.1 °F /  -0.5 °C 30.15in /  1020.9hPa SSW 5.0mph /  8km/h 10.0mph /  16.1km/h 69% 0.00in /  0mm
14:19 40.4 °F /  4.7 °C 31.0 °F /  -0.6 °C 30.15in /  1020.9hPa SSW 3.0mph /  4.8km/h 11.0mph /  17.7km/h 69% 0.00in /  0mm
14:24 40.2 °F /  4.6 °C 30.8 °F /  -0.7 °C 30.14in /  1020.5hPa SW 5.0mph /  8km/h 10.0mph /  16.1km/h 69% 0.00in /  0mm
14:29 40.3 °F /  4.6 °C 30.9 °F /  -0.6 °C 30.14in /  1020.5hPa SSW 7.0mph /  11.3km/h 11.0mph /  17.7km/h 69% 0.00in /  0mm
14:34 40.0 °F /  4.4 °C 30.6 °F /  -0.8 °C 30.13in /  1020.2hPa SW 2.0mph /  3.2km/h 9.0mph /  14.5km/h 69% 0.00in /  0mm
14:39 40.0 °F /  4.4 °C 31.0 °F /  -0.6 °C 30.13in /  1020.2hPa SW 5.0mph /  8km/h 9.0mph /  14.5km/h 70% 0.00in /  0mm
14:44 40.0 °F /  4.4 °C 30.6 °F /  -0.8 °C 30.13in /  1020.2hPa SW 5.0mph /  8km/h 9.0mph /  14.5km/h 69% 0.00in /  0mm
14:49 39.8 °F /  4.3 °C 30.8 °F /  -0.7 °C 30.13in /  1020.2hPa SSW 5.0mph /  8km/h 9.0mph /  14.5km/h 70% 0.00in /  0mm
14:54 39.8 °F /  4.3 °C 30.8 °F /  -0.7 °C 30.12in /  1019.9hPa SW 5.0mph /  8km/h 9.0mph /  14.5km/h 70% 0.00in /  0mm
14:59 39.8 °F /  4.3 °C 30.8 °F /  -0.7 °C 30.12in /  1019.9hPa SW 4.0mph /  6.4km/h 10.0mph /  16.1km/h 70% 0.00in /  0mm
15:04 39.8 °F /  4.3 °C 30.8 °F /  -0.7 °C 30.12in /  1019.9hPa SW 4.0mph /  6.4km/h 10.0mph /  16.1km/h 70% 0.00in /  0mm
15:09 39.7 °F /  4.3 °C 30.7 °F /  -0.7 °C 30.12in /  1019.9hPa SW 4.0mph /  6.4km/h 8.0mph /  12.9km/h 70% 0.00in /  0mm
15:14 39.9 °F /  4.4 °C 30.9 °F /  -0.6 °C 30.12in /  1019.9hPa WSW 4.0mph /  6.4km/h 6.0mph /  9.7km/h 70% 0.00in /  0mm
15:19 39.9 °F /  4.4 °C 30.9 °F /  -0.6 °C 30.11in /  1019.5hPa SW 3.0mph /  4.8km/h 7.0mph /  11.3km/h 70% 0.00in /  0mm
15:24 39.9 °F /  4.4 °C 30.9 °F /  -0.6 °C 30.11in /  1019.5hPa SW 4.0mph /  6.4km/h 8.0mph /  12.9km/h 70% 0.00in /  0mm
15:29 40.0 °F /  4.4 °C 31.0 °F /  -0.6 °C 30.10in /  1019.2hPa SW 3.0mph /  4.8km/h 6.0mph /  9.7km/h 70% 0.00in /  0mm
15:34 40.1 °F /  4.5 °C 31.1 °F /  -0.5 °C 30.10in /  1019.2hPa WSW 4.0mph /  6.4km/h 7.0mph /  11.3km/h 70% 0.00in /  0mm
15:39 40.1 °F /  4.5 °C 31.1 °F /  -0.5 °C 30.10in /  1019.2hPa West 4.0mph /  6.4km/h 6.0mph /  9.7km/h 70% 0.00in /  0mm
15:44 40.0 °F /  4.4 °C 31.0 °F /  -0.6 °C 30.10in /  1019.2hPa WSW 4.0mph /  6.4km/h 9.0mph /  14.5km/h 70% 0.00in /  0mm
15:49 39.9 °F /  4.4 °C 30.9 °F /  -0.6 °C 30.10in /  1019.2hPa WSW 4.0mph /  6.4km/h 9.0mph /  14.5km/h 70% 0.00in /  0mm
15:54 39.9 °F /  4.4 °C 30.9 °F /  -0.6 °C 30.09in /  1018.8hPa SW 4.0mph /  6.4km/h 7.0mph /  11.3km/h 70% 0.00in /  0mm
15:59 39.9 °F /  4.4 °C 30.9 °F /  -0.6 °C 30.09in /  1018.8hPa SW 3.0mph /  4.8km/h 6.0mph /  9.7km/h 70% 0.00in /  0mm
16:04 39.9 °F /  4.4 °C 31.3 °F /  -0.4 °C 30.09in /  1018.8hPa SW 3.0mph /  4.8km/h 6.0mph /  9.7km/h 71% 0.00in /  0mm
16:09 40.0 °F /  4.4 °C 31.4 °F /  -0.3 °C 30.09in /  1018.8hPa SW 2.0mph /  3.2km/h 5.0mph /  8km/h 71% 0.00in /  0mm
16:14 40.0 °F /  4.4 °C 31.0 °F /  -0.6 °C 30.09in /  1018.8hPa West 2.0mph /  3.2km/h 6.0mph /  9.7km/h 70% 0.00in /  0mm
16:19 40.0 °F /  4.4 °C 31.0 °F /  -0.6 °C 30.09in /  1018.8hPa SSW 2.0mph /  3.2km/h 6.0mph /  9.7km/h 70% 0.00in /  0mm
16:24 40.1 °F /  4.5 °C 31.1 °F /  -0.5 °C 30.09in /  1018.8hPa SSW 2.0mph /  3.2km/h 7.0mph /  11.3km/h 70% 0.00in /  0mm
16:29 40.1 °F /  4.5 °C 31.1 °F /  -0.5 °C 30.08in /  1018.5hPa SW 4.0mph /  6.4km/h 7.0mph /  11.3km/h 70% 0.00in /  0mm
16:34 40.2 °F /  4.6 °C 31.5 °F /  -0.3 °C 30.08in /  1018.5hPa SSW 3.0mph /  4.8km/h 5.0mph /  8km/h 71% 0.00in /  0mm
16:39 40.4 °F /  4.7 °C 31.4 °F /  -0.3 °C 30.08in /  1018.5hPa SW 4.0mph /  6.4km/h 6.0mph /  9.7km/h 70% 0.00in /  0mm
16:44 40.5 °F /  4.7 °C 31.5 °F /  -0.3 °C 30.08in /  1018.5hPa SW 3.0mph /  4.8km/h 6.0mph /  9.7km/h 70% 0.00in /  0mm
16:49 40.6 °F /  4.8 °C 31.6 °F /  -0.2 °C 30.08in /  1018.5hPa SW 2.0mph /  3.2km/h 5.0mph /  8km/h 70% 0.00in /  0mm
16:54 40.6 °F /  4.8 °C 31.6 °F /  -0.2 °C 30.08in /  1018.5hPa SW 3.0mph /  4.8km/h 6.0mph /  9.7km/h 70% 0.00in /  0mm
16:59 40.5 °F /  4.7 °C 31.5 °F /  -0.3 °C 30.08in /  1018.5hPa SW 4.0mph /  6.4km/h 8.0mph /  12.9km/h 70% 0.00in /  0mm
17:04 40.4 °F /  4.7 °C 31.4 °F /  -0.3 °C 30.08in /  1018.5hPa SW 3.0mph /  4.8km/h 7.0mph /  11.3km/h 70% 0.00in /  0mm
17:09 40.3 °F /  4.6 °C 31.6 °F /  -0.2 °C 30.08in /  1018.5hPa SSW 4.0mph /  6.4km/h 7.0mph /  11.3km/h 71% 0.00in /  0mm
17:14 40.2 °F /  4.6 °C 31.2 °F /  -0.4 °C 30.08in /  1018.5hPa WSW 3.0mph /  4.8km/h 7.0mph /  11.3km/h 70% 0.00in /  0mm
17:19 40.2 °F /  4.6 °C 31.2 °F /  -0.4 °C 30.08in /  1018.5hPa SW 4.0mph /  6.4km/h 7.0mph /  11.3km/h 70% 0.00in /  0mm
17:24 40.2 °F /  4.6 °C 31.2 °F /  -0.4 °C 30.08in /  1018.5hPa WSW 4.0mph /  6.4km/h 8.0mph /  12.9km/h 70% 0.00in /  0mm
17:29 40.4 °F /  4.7 °C 31.4 °F /  -0.3 °C 30.07in /  1018.2hPa WSW 3.0mph /  4.8km/h 5.0mph /  8km/h 70% 0.00in /  0mm
17:39 40.4 °F /  4.7 °C 31.4 °F /  -0.3 °C 30.07in /  1018.2hPa West 1.0mph /  1.6km/h 6.0mph /  9.7km/h 70% 0.00in /  0mm
17:44 40.3 °F /  4.6 °C 31.3 °F /  -0.4 °C 30.07in /  1018.2hPa WSW 6.0mph /  9.7km/h 7.0mph /  11.3km/h 70% 0.00in /  0mm
17:49 40.1 °F /  4.5 °C 31.4 °F /  -0.3 °C 30.07in /  1018.2hPa WSW 3.0mph /  4.8km/h 7.0mph /  11.3km/h 71% 0.00in /  0mm
17:54 40.0 °F /  4.4 °C 31.4 °F /  -0.3 °C 30.07in /  1018.2hPa West 3.0mph /  4.8km/h 6.0mph /  9.7km/h 71% 0.00in /  0mm
17:59 40.0 °F /  4.4 °C 31.4 °F /  -0.3 °C 30.07in /  1018.2hPa West 2.0mph /  3.2km/h 5.0mph /  8km/h 71% 0.00in /  0mm
18:04 40.0 °F /  4.4 °C 31.4 °F /  -0.3 °C 30.07in /  1018.2hPa SW 3.0mph /  4.8km/h 4.0mph /  6.4km/h 71% 0.00in /  0mm
18:09 40.0 °F /  4.4 °C 31.4 °F /  -0.3 °C 30.07in /  1018.2hPa WSW 2.0mph /  3.2km/h 4.0mph /  6.4km/h 71% 0.00in /  0mm
18:14 40.0 °F /  4.4 °C 31.4 °F /  -0.3 °C 30.06in /  1017.8hPa Calm   5.0mph /  8km/h 71% 0.00in /  0mm
18:19 40.0 °F /  4.4 °C 31.4 °F /  -0.3 °C 30.06in /  1017.8hPa SW 2.0mph /  3.2km/h 4.0mph /  6.4km/h 71% 0.00in /  0mm
18:24 39.9 °F /  4.4 °C 31.3 °F /  -0.4 °C 30.06in /  1017.8hPa SW 2.0mph /  3.2km/h 3.0mph /  4.8km/h 71% 0.00in /  0mm
18:29 39.9 °F /  4.4 °C 31.3 °F /  -0.4 °C 30.06in /  1017.8hPa SSW 1.0mph /  1.6km/h 4.0mph /  6.4km/h 71% 0.00in /  0mm
18:34 39.8 °F /  4.3 °C 31.5 °F /  -0.3 °C 30.06in /  1017.8hPa SW 3.0mph /  4.8km/h 4.0mph /  6.4km/h 72% 0.00in /  0mm
18:39 39.8 °F /  4.3 °C 31.5 °F /  -0.3 °C 30.06in /  1017.8hPa Calm   4.0mph /  6.4km/h 72% 0.00in /  0mm
18:44 39.7 °F /  4.3 °C 31.4 °F /  -0.3 °C 30.06in /  1017.8hPa SW 3.0mph /  4.8km/h 3.0mph /  4.8km/h 72% 0.00in /  0mm
18:49 39.6 °F /  4.2 °C 31.3 °F /  -0.4 °C 30.06in /  1017.8hPa SW 1.0mph /  1.6km/h 4.0mph /  6.4km/h 72% 0.00in /  0mm
18:54 39.6 °F /  4.2 °C 31.3 °F /  -0.4 °C 30.06in /  1017.8hPa SW 1.0mph /  1.6km/h 4.0mph /  6.4km/h 72% 0.00in /  0mm
18:59 39.5 °F /  4.2 °C 31.2 °F /  -0.4 °C 30.06in /  1017.8hPa WSW 1.0mph /  1.6km/h 4.0mph /  6.4km/h 72% 0.00in /  0mm
19:04 39.4 °F /  4.1 °C 31.1 °F /  -0.5 °C 30.06in /  1017.8hPa WSW 1.0mph /  1.6km/h 4.0mph /  6.4km/h 72% 0.00in /  0mm
19:09 39.3 °F /  4.1 °C 31.0 °F /  -0.6 °C 30.06in /  1017.8hPa WSW 1.0mph /  1.6km/h 3.0mph /  4.8km/h 72% 0.00in /  0mm
19:14 39.1 °F /  3.9 °C 31.2 °F /  -0.4 °C 30.06in /  1017.8hPa WSW 1.0mph /  1.6km/h 3.0mph /  4.8km/h 73% 0.00in /  0mm
19:19 39.0 °F /  3.9 °C 31.1 °F /  -0.5 °C 30.06in /  1017.8hPa SW 2.0mph /  3.2km/h 3.0mph /  4.8km/h 73% 0.00in /  0mm
19:24 38.9 °F /  3.8 °C 31.0 °F /  -0.6 °C 30.06in /  1017.8hPa SW 2.0mph /  3.2km/h 3.0mph /  4.8km/h 73% 0.00in /  0mm
19:29 38.8 °F /  3.8 °C 30.9 °F /  -0.6 °C 30.06in /  1017.8hPa SW 3.0mph /  4.8km/h 3.0mph /  4.8km/h 73% 0.00in /  0mm
19:34 38.8 °F /  3.8 °C 30.9 °F /  -0.6 °C 30.06in /  1017.8hPa SSW 3.0mph /  4.8km/h 4.0mph /  6.4km/h 73% 0.00in /  0mm
19:39 38.7 °F /  3.7 °C 31.1 °F /  -0.5 °C 30.06in /  1017.8hPa SW 1.0mph /  1.6km/h 4.0mph /  6.4km/h 74% 0.00in /  0mm
19:44 38.6 °F /  3.7 °C 31.0 °F /  -0.6 °C 30.06in /  1017.8hPa SSW 4.0mph /  6.4km/h 4.0mph /  6.4km/h 74% 0.00in /  0mm
19:49 38.5 °F /  3.6 °C 30.9 °F /  -0.6 °C 30.06in /  1017.8hPa SW 1.0mph /  1.6km/h 5.0mph /  8km/h 74% 0.00in /  0mm
19:54 38.4 °F /  3.6 °C 30.8 °F /  -0.7 °C 30.06in /  1017.8hPa SW 2.0mph /  3.2km/h 5.0mph /  8km/h 74% 0.00in /  0mm
19:59 38.4 °F /  3.6 °C 30.8 °F /  -0.7 °C 30.06in /  1017.8hPa SW 2.0mph /  3.2km/h 4.0mph /  6.4km/h 74% 0.00in /  0mm
20:04 38.3 °F /  3.5 °C 30.7 °F /  -0.7 °C 30.06in /  1017.8hPa SW 2.0mph /  3.2km/h 4.0mph /  6.4km/h 74% 0.00in /  0mm
20:09 38.3 °F /  3.5 °C 31.1 °F /  -0.5 °C 30.06in /  1017.8hPa SW 2.0mph /  3.2km/h 4.0mph /  6.4km/h 75% 0.00in /  0mm
20:14 38.2 °F /  3.4 °C 31.0 °F /  -0.6 °C 30.06in /  1017.8hPa SW 1.0mph /  1.6km/h 3.0mph /  4.8km/h 75% 0.00in /  0mm
20:19 38.1 °F /  3.4 °C 30.9 °F /  -0.6 °C 30.06in /  1017.8hPa SW 1.0mph /  1.6km/h 3.0mph /  4.8km/h 75% 0.00in /  0mm
20:24 38.1 °F /  3.4 °C 30.9 °F /  -0.6 °C 30.06in /  1017.8hPa SW 1.0mph /  1.6km/h 3.0mph /  4.8km/h 75% 0.00in /  0mm
20:29 38.1 °F /  3.4 °C 30.9 °F /  -0.6 °C 30.06in /  1017.8hPa SW 1.0mph /  1.6km/h 3.0mph /  4.8km/h 75% 0.00in /  0mm
20:34 38.1 °F /  3.4 °C 30.9 °F /  -0.6 °C 30.06in /  1017.8hPa Calm   2.0mph /  3.2km/h 75% 0.00in /  0mm
20:39 38.0 °F /  3.3 °C 30.8 °F /  -0.7 °C 30.06in /  1017.8hPa Calm     75% 0.00in /  0mm
20:44 38.0 °F /  3.3 °C 30.8 °F /  -0.7 °C 30.06in /  1017.8hPa Calm     75% 0.00in /  0mm
20:49 38.0 °F /  3.3 °C 30.8 °F /  -0.7 °C 30.06in /  1017.8hPa Calm     75% 0.00in /  0mm
20:54 38.0 °F /  3.3 °C 31.1 °F /  -0.5 °C 30.05in /  1017.5hPa Calm     76% 0.00in /  0mm
20:59 37.9 °F /  3.3 °C 31.0 °F /  -0.6 °C 30.05in /  1017.5hPa SSW 1.0mph /  1.6km/h 4.0mph /  6.4km/h 76% 0.00in /  0mm
21:04 37.9 °F /  3.3 °C 31.0 °F /  -0.6 °C 30.05in /  1017.5hPa SSW 2.0mph /  3.2km/h 4.0mph /  6.4km/h 76% 0.00in /  0mm
21:09 37.8 °F /  3.2 °C 30.9 °F /  -0.6 °C 30.05in /  1017.5hPa WSW 2.0mph /  3.2km/h 4.0mph /  6.4km/h 76% 0.00in /  0mm
21:14 37.8 °F /  3.2 °C 30.9 °F /  -0.6 °C 30.05in /  1017.5hPa SW 1.0mph /  1.6km/h 4.0mph /  6.4km/h 76% 0.00in /  0mm
21:19 37.8 °F /  3.2 °C 30.9 °F /  -0.6 °C 30.05in /  1017.5hPa SW 2.0mph /  3.2km/h 3.0mph /  4.8km/h 76% 0.00in /  0mm
21:24 37.8 °F /  3.2 °C 30.9 °F /  -0.6 °C 30.05in /  1017.5hPa SSW 1.0mph /  1.6km/h 3.0mph /  4.8km/h 76% 0.00in /  0mm
21:29 37.9 °F /  3.3 °C 31.0 °F /  -0.6 °C 30.05in /  1017.5hPa WSW 2.0mph /  3.2km/h 4.0mph /  6.4km/h 76% 0.00in /  0mm
21:34 37.9 °F /  3.3 °C 31.0 °F /  -0.6 °C 30.05in /  1017.5hPa SW 2.0mph /  3.2km/h 4.0mph /  6.4km/h 76% 0.00in /  0mm
21:39 37.9 °F /  3.3 °C 31.0 °F /  -0.6 °C 30.05in /  1017.5hPa SW 1.0mph /  1.6km/h 4.0mph /  6.4km/h 76% 0.00in /  0mm
21:44 37.9 °F /  3.3 °C 31.0 °F /  -0.6 °C 30.05in /  1017.5hPa Calm   2.0mph /  3.2km/h 76% 0.00in /  0mm
21:49 37.9 °F /  3.3 °C 31.0 °F /  -0.6 °C 30.05in /  1017.5hPa Calm     76% 0.00in /  0mm
21:54 37.8 °F /  3.2 °C 30.9 °F /  -0.6 °C 30.05in /  1017.5hPa Calm     76% 0.00in /  0mm
21:59 37.9 °F /  3.3 °C 31.0 °F /  -0.6 °C 30.05in /  1017.5hPa Calm     76% 0.00in /  0mm
22:04 38.0 °F /  3.3 °C 31.1 °F /  -0.5 °C 30.05in /  1017.5hPa Calm   3.0mph /  4.8km/h 76% 0.00in /  0mm
22:09 37.9 °F /  3.3 °C 31.0 °F /  -0.6 °C 30.05in /  1017.5hPa WSW 1.0mph /  1.6km/h 3.0mph /  4.8km/h 76% 0.00in /  0mm
22:14 38.0 °F /  3.3 °C 31.1 °F /  -0.5 °C 30.05in /  1017.5hPa WSW 1.0mph /  1.6km/h 3.0mph /  4.8km/h 76% 0.00in /  0mm
22:19 38.0 °F /  3.3 °C 31.1 °F /  -0.5 °C 30.05in /  1017.5hPa WSW 1.0mph /  1.6km/h 2.0mph /  3.2km/h 76% 0.00in /  0mm
22:24 38.0 °F /  3.3 °C 31.1 °F /  -0.5 °C 30.05in /  1017.5hPa Calm   2.0mph /  3.2km/h 76% 0.00in /  0mm
22:29 38.0 °F /  3.3 °C 31.1 °F /  -0.5 °C 30.05in /  1017.5hPa Calm     76% 0.00in /  0mm
22:34 38.1 °F /  3.4 °C 31.2 °F /  -0.4 °C 30.04in /  1017.2hPa Calm     76% 0.00in /  0mm
22:44 38.1 °F /  3.4 °C 31.2 °F /  -0.4 °C 30.04in /  1017.2hPa WSW 1.0mph /  1.6km/h 2.0mph /  3.2km/h 76% 0.00in /  0mm
22:49 38.1 °F /  3.4 °C 31.2 °F /  -0.4 °C 30.04in /  1017.2hPa Calm   3.0mph /  4.8km/h 76% 0.00in /  0mm
22:54 38.1 °F /  3.4 °C 31.2 °F /  -0.4 °C 30.04in /  1017.2hPa WSW 1.0mph /  1.6km/h 3.0mph /  4.8km/h 76% 0.00in /  0mm
22:59 38.0 °F /  3.3 °C 31.4 °F /  -0.3 °C 30.04in /  1017.2hPa Calm   1.0mph /  1.6km/h 77% 0.00in /  0mm
23:04 38.0 °F /  3.3 °C 31.4 °F /  -0.3 °C 30.04in /  1017.2hPa Calm   2.0mph /  3.2km/h 77% 0.00in /  0mm
23:09 38.0 °F /  3.3 °C 31.4 °F /  -0.3 °C 30.04in /  1017.2hPa Calm   2.0mph /  3.2km/h 77% 0.00in /  0mm
23:14 37.9 °F /  3.3 °C 31.3 °F /  -0.4 °C 30.04in /  1017.2hPa Calm   1.0mph /  1.6km/h 77% 0.00in /  0mm
23:19 37.9 °F /  3.3 °C 31.3 °F /  -0.4 °C 30.04in /  1017.2hPa Calm     77% 0.00in /  0mm
23:24 38.0 °F /  3.3 °C 31.4 °F /  -0.3 °C 30.03in /  1016.8hPa Calm     77% 0.00in /  0mm
23:29 38.1 °F /  3.4 °C 31.5 °F /  -0.3 °C 30.04in /  1017.2hPa Calm     77% 0.00in /  0mm
23:34 38.2 °F /  3.4 °C 31.6 °F /  -0.2 °C 30.04in /  1017.2hPa Calm     77% 0.00in /  0mm
23:39 38.2 °F /  3.4 °C 31.6 °F /  -0.2 °C 30.04in /  1017.2hPa Calm   2.0mph /  3.2km/h 77% 0.00in /  0mm
23:44 38.1 °F /  3.4 °C 31.5 °F /  -0.3 °C 30.03in /  1016.8hPa Calm   2.0mph /  3.2km/h 77% 0.00in /  0mm
23:49 38.0 °F /  3.3 °C 31.4 °F /  -0.3 °C 30.02in /  1016.5hPa Calm   2.0mph /  3.2km/h 77% 0.00in /  0mm
23:54 37.9 °F /  3.3 °C 31.3 °F /  -0.4 °C 30.02in /  1016.5hPa Calm   2.0mph /  3.2km/h 77% 0.00in /  0mm
23:59 37.7 °F /  3.2 °C 31.1 °F /  -0.5 °C 30.02in /  1016.5hPa SW 1.0mph /  1.6km/h 2.0mph /  3.2km/h 77% 0.00in /  0mm
Buffalo, New York, USA
Compliments of Weather Underground - 2.5 mb